Oceanside, Oregon
Current Conditions -  °F | °C
As of 10:35 AM on Sunday 23 Nov 2014 (Local Time) from KTMK Reporting Station
Broken Clouds Broken Clouds  
Wind Chill: 55°   Ceiling: 2800
Heat Index: 55°   Visibility: 7mi
Dew Point: 50°   Wind: 17mph
Humidity: 82%   Direction: 200°SSW
Pressure: 30.28"   Gusts: 23mph
Location:  45.46°N, 123.97°W
Report Text: KTMK 231835Z AUTO 20015G20KT 7SM SCT019 BKN028 BKN050 13/10 A3028 RMK AO2
Loading
Personal Weather Stations






























Interactive Weather Map New forecast layout! Learn more

10-Day Weather Forecast

Advertisements
Track Severe Weather on mobile